sensor_id;sensor_type;location;lat;lon;timestamp;pressure;altitude;pressure_sealevel;temperature;humidity
46023;BME280;31756;47.936;16.224;2022-10-31T00:01:26;99236.56;;;10.85;100.00
46023;BME280;31756;47.936;16.224;2022-10-31T00:03:53;99237.38;;;10.87;100.00
46023;BME280;31756;47.936;16.224;2022-10-31T00:06:19;99234.94;;;10.77;100.00
46023;BME280;31756;47.936;16.224;2022-10-31T00:08:47;99217.09;;;10.63;100.00
46023;BME280;31756;47.936;16.224;2022-10-31T00:11:13;99235.09;;;10.60;100.00
46023;BME280;31756;47.936;16.224;2022-10-31T00:13:38;99241.91;;;10.61;100.00
46023;BME280;31756;47.936;16.224;2022-10-31T00:16:05;99224.06;;;10.52;100.00
46023;BME280;31756;47.936;16.224;2022-10-31T00:18:31;99241.03;;;10.64;100.00
46023;BME280;31756;47.936;16.224;2022-10-31T00:21:03;99215.56;;;10.47;100.00
46023;BME280;31756;47.936;16.224;2022-10-31T00:23:28;99237.63;;;10.65;100.00
46023;BME280;31756;47.936;16.224;2022-10-31T00:26:03;99218.94;;;10.50;100.00
46023;BME280;31756;47.936;16.224;2022-10-31T00:28:29;99240.22;;;10.57;100.00
46023;BME280;31756;47.936;16.224;2022-10-31T00:31:00;99226.72;;;10.41;100.00
46023;BME280;31756;47.936;16.224;2022-10-31T00:33:26;99242.91;;;10.48;100.00
46023;BME280;31756;47.936;16.224;2022-10-31T00:35:52;99226.69;;;10.43;100.00
46023;BME280;31756;47.936;16.224;2022-10-31T00:38:18;99244.56;;;10.50;100.00
46023;BME280;31756;47.936;16.224;2022-10-31T00:40:43;99250.53;;;10.54;100.00
46023;BME280;31756;47.936;16.224;2022-10-31T00:43:09;99244.63;;;10.46;100.00
46023;BME280;31756;47.936;16.224;2022-10-31T00:45:34;99226.78;;;10.34;100.00
46023;BME280;31756;47.936;16.224;2022-10-31T00:48:00;99248.91;;;10.41;100.00
46023;BME280;31756;47.936;16.224;2022-10-31T00:50:26;99243.84;;;10.36;100.00
46023;BME280;31756;47.936;16.224;2022-10-31T00:52:51;99243.84;;;10.36;100.00
46023;BME280;31756;47.936;16.224;2022-10-31T00:55:17;99226.88;;;10.22;100.00
46023;BME280;31756;47.936;16.224;2022-10-31T00:57:46;99252.38;;;10.37;100.00
46023;BME280;31756;47.936;16.224;2022-10-31T01:00:12;99248.97;;;10.38;100.00
46023;BME280;31756;47.936;16.224;2022-10-31T01:02:39;99244.75;;;10.31;100.00
46023;BME280;31756;47.936;16.224;2022-10-31T01:05:05;99220.09;;;10.16;100.00
46023;BME280;31756;47.936;16.224;2022-10-31T01:07:31;99229.44;;;10.20;100.00
46023;BME280;31756;47.936;16.224;2022-10-31T01:09:56;99249.84;;;10.34;100.00
46023;BME280;31756;47.936;16.224;2022-10-31T01:12:22;99237.97;;;10.27;100.00
46023;BME280;31756;47.936;16.224;2022-10-31T01:14:49;99229.41;;;10.26;100.00
46023;BME280;31756;47.936;16.224;2022-10-31T01:17:17;99247.25;;;10.38;100.00
46023;BME280;31756;47.936;16.224;2022-10-31T01:19:44;99235.34;;;10.30;100.00
46023;BME280;31756;47.936;16.224;2022-10-31T01:22:10;99234.56;;;10.22;100.00
46023;BME280;31756;47.936;16.224;2022-10-31T01:24:36;99243.88;;;10.33;100.00
46023;BME280;31756;47.936;16.224;2022-10-31T01:27:02;99242.19;;;10.29;100.00
46023;BME280;31756;47.936;16.224;2022-10-31T01:29:31;99234.53;;;10.26;100.00
46023;BME280;31756;47.936;16.224;2022-10-31T01:31:57;99242.22;;;10.23;100.00
46023;BME280;31756;47.936;16.224;2022-10-31T01:34:23;99220.97;;;10.07;100.00
46023;BME280;31756;47.936;16.224;2022-10-31T01:36:48;99232.88;;;10.15;100.00
46023;BME280;31756;47.936;16.224;2022-10-31T01:39:17;99229.47;;;10.11;100.00
46023;BME280;31756;47.936;16.224;2022-10-31T01:41:49;99216.78;;;9.99;100.00
46023;BME280;31756;47.936;16.224;2022-10-31T01:49:18;99239.78;;;10.03;100.00
46023;BME280;31756;47.936;16.224;2022-10-31T01:52:00;99222.78;;;9.96;100.00
46023;BME280;31756;47.936;16.224;2022-10-31T01:54:32;99235.56;;;10.01;100.00
46023;BME280;31756;47.936;16.224;2022-10-31T01:57:01;99216.75;;;9.97;100.00
46023;BME280;31756;47.936;16.224;2022-10-31T01:59:31;99219.34;;;9.99;100.00
46023;BME280;31756;47.936;16.224;2022-10-31T02:02:00;99238.09;;;10.05;100.00
46023;BME280;31756;47.936;16.224;2022-10-31T02:04:26;99233.81;;;10.03;100.00
46023;BME280;31756;47.936;16.224;2022-10-31T02:06:56;99240.66;;;10.04;100.00
46023;BME280;31756;47.936;16.224;2022-10-31T02:09:24;99231.28;;;9.98;100.00
46023;BME280;31756;47.936;16.224;2022-10-31T02:11:56;99229.53;;;10.05;100.00
46023;BME280;31756;47.936;16.224;2022-10-31T02:14:25;99228.63;;;10.12;100.00
46023;BME280;31756;47.936;16.224;2022-10-31T02:16:53;99233.75;;;10.17;100.00
46023;BME280;31756;47.936;16.224;2022-10-31T02:19:31;99238.84;;;10.21;100.00
46023;BME280;31756;47.936;16.224;2022-10-31T02:22:02;99236.28;;;10.20;100.00
46023;BME280;31756;47.936;16.224;2022-10-31T02:24:57;99236.31;;;10.15;100.00
46023;BME280;31756;47.936;16.224;2022-10-31T02:30:05;99239.78;;;10.05;100.00
46023;BME280;31756;47.936;16.224;2022-10-31T02:32:46;99237.25;;;10.00;100.00
46023;BME280;31756;47.936;16.224;2022-10-31T02:35:41;99235.59;;;9.95;100.00
46023;BME280;31756;47.936;16.224;2022-10-31T02:41:22;99235.59;;;9.90;100.00
46023;BME280;31756;47.936;16.224;2022-10-31T02:44:58;99233.06;;;9.90;100.00
46023;BME280;31756;47.936;16.224;2022-10-31T02:47:15;99228.78;;;9.92;100.00
46023;BME280;31756;47.936;16.224;2022-10-31T02:49:45;99241.66;;;9.83;100.00
46023;BME280;31756;47.936;16.224;2022-10-31T02:52:17;99244.19;;;9.82;100.00
46023;BME280;31756;47.936;16.224;2022-10-31T02:54:45;99233.09;;;9.84;100.00
46023;BME280;31756;47.936;16.224;2022-10-31T02:57:11;99233.19;;;9.71;100.00
46023;BME280;31756;47.936;16.224;2022-10-31T02:59:39;99223.78;;;9.73;100.00
46023;BME280;31756;47.936;16.224;2022-10-31T03:02:21;99220.34;;;9.74;100.00
46023;BME280;31756;47.936;16.224;2022-10-31T03:10:59;99228.06;;;9.71;100.00
46023;BME280;31756;47.936;16.224;2022-10-31T03:13:32;99245.97;;;9.75;100.00
46023;BME280;31756;47.936;16.224;2022-10-31T03:16:19;99215.31;;;9.61;100.00
46023;BME280;31756;47.936;16.224;2022-10-31T03:18:55;99248.53;;;9.72;100.00
46023;BME280;31756;47.936;16.224;2022-10-31T03:23:54;99245.13;;;9.69;100.00
46023;BME280;31756;47.936;16.224;2022-10-31T03:26:23;99253.75;;;9.58;100.00
46023;BME280;31756;47.936;16.224;2022-10-31T03:28:59;99255.44;;;9.55;100.00
46023;BME280;31756;47.936;16.224;2022-10-31T03:31:30;99256.28;;;9.60;100.00
46023;BME280;31756;47.936;16.224;2022-10-31T03:34:00;99260.56;;;9.58;100.00
46023;BME280;31756;47.936;16.224;2022-10-31T03:36:30;99258.84;;;9.55;100.00
46023;BME280;31756;47.936;16.224;2022-10-31T03:39:00;99258.88;;;9.51;100.00
46023;BME280;31756;47.936;16.224;2022-10-31T03:41:28;99247.81;;;9.47;100.00
46023;BME280;31756;47.936;16.224;2022-10-31T03:44:05;99240.13;;;9.43;100.00
46023;BME280;31756;47.936;16.224;2022-10-31T03:46:33;99256.41;;;9.36;100.00
46023;BME280;31756;47.936;16.224;2022-10-31T03:48:59;99261.47;;;9.45;100.00
46023;BME280;31756;47.936;16.224;2022-10-31T03:56:43;99264.97;;;9.29;100.00
46023;BME280;31756;47.936;16.224;2022-10-31T03:59:17;99256.44;;;9.22;100.00
46023;BME280;31756;47.936;16.224;2022-10-31T04:01:47;99247.09;;;9.20;100.00
46023;BME280;31756;47.936;16.224;2022-10-31T04:04:14;99262.38;;;9.32;100.00
46023;BME280;31756;47.936;16.224;2022-10-31T04:06:42;99228.31;;;9.24;100.00
46023;BME280;31756;47.936;16.224;2022-10-31T04:09:10;99241.09;;;9.24;100.00
46023;BME280;31756;47.936;16.224;2022-10-31T04:11:44;99258.09;;;9.35;100.00
46023;BME280;31756;47.936;16.224;2022-10-31T04:14:31;99260.66;;;9.34;100.00
46023;BME280;31756;47.936;16.224;2022-10-31T04:16:58;99241.88;;;9.35;100.00
46023;BME280;31756;47.936;16.224;2022-10-31T04:19:33;99261.50;;;9.36;100.00
46023;BME280;31756;47.936;16.224;2022-10-31T04:21:59;99264.94;;;9.36;100.00
46023;BME280;31756;47.936;16.224;2022-10-31T04:24:25;99266.63;;;9.34;100.00
46023;BME280;31756;47.936;16.224;2022-10-31T04:26:51;99264.09;;;9.31;100.00
46023;BME280;31756;47.936;16.224;2022-10-31T04:29:18;99258.97;;;9.31;100.00
46023;BME280;31756;47.936;16.224;2022-10-31T04:31:43;99232.59;;;9.14;100.00
46023;BME280;31756;47.936;16.224;2022-10-31T04:34:09;99267.53;;;9.23;100.00
46023;BME280;31756;47.936;16.224;2022-10-31T04:36:35;99269.22;;;9.22;100.00
46023;BME280;31756;47.936;16.224;2022-10-31T04:39:01;99254.78;;;9.15;100.00
46023;BME280;31756;47.936;16.224;2022-10-31T04:41:50;99243.75;;;8.98;100.00
46023;BME280;31756;47.936;16.224;2022-10-31T04:44:17;99267.59;;;9.07;100.00
46023;BME280;31756;47.936;16.224;2022-10-31T04:46:47;99252.25;;;8.92;100.00
46023;BME280;31756;47.936;16.224;2022-10-31T04:49:12;99248.00;;;8.96;100.00
46023;BME280;31756;47.936;16.224;2022-10-31T04:51:39;99274.38;;;9.08;100.00
46023;BME280;31756;47.936;16.224;2022-10-31T04:54:05;99265.91;;;8.93;100.00
46023;BME280;31756;47.936;16.224;2022-10-31T04:56:54;99272.75;;;8.91;100.00
46023;BME280;31756;47.936;16.224;2022-10-31T04:59:21;99270.19;;;8.95;100.00
46023;BME280;31756;47.936;16.224;2022-10-31T05:01:50;99258.25;;;8.85;100.00
46023;BME280;31756;47.936;16.224;2022-10-31T05:04:21;99282.09;;;8.96;100.00
46023;BME280;31756;47.936;16.224;2022-10-31T05:06:47;99278.69;;;8.93;100.00
46023;BME280;31756;47.936;16.224;2022-10-31T05:09:13;99276.13;;;8.93;100.00
46023;BME280;31756;47.936;16.224;2022-10-31T05:11:38;99271.00;;;9.00;100.00
46023;BME280;31756;47.936;16.224;2022-10-31T05:14:20;99274.41;;;8.92;100.00
46023;BME280;31756;47.936;16.224;2022-10-31T05:17:08;99281.25;;;8.93;100.00
46023;BME280;31756;47.936;16.224;2022-10-31T05:19:57;99269.31;;;8.96;100.00
46023;BME280;31756;47.936;16.224;2022-10-31T05:22:53;99260.81;;;8.85;100.00
46023;BME280;31756;47.936;16.224;2022-10-31T05:25:21;99277.88;;;8.82;100.00
46023;BME280;31756;47.936;16.224;2022-10-31T05:27:49;99282.13;;;8.67;100.00
46023;BME280;31756;47.936;16.224;2022-10-31T05:30:19;99289.84;;;8.57;100.00
46023;BME280;31756;47.936;16.224;2022-10-31T05:32:47;99285.56;;;8.44;100.00
46023;BME280;31756;47.936;16.224;2022-10-31T05:35:32;99288.97;;;8.41;100.00
46023;BME280;31756;47.936;16.224;2022-10-31T05:38:16;99289.81;;;8.33;100.00
46023;BME280;31756;47.936;16.224;2022-10-31T05:40:43;99281.31;;;8.31;100.00
46023;BME280;31756;47.936;16.224;2022-10-31T05:43:08;99291.47;;;8.27;100.00
46023;BME280;31756;47.936;16.224;2022-10-31T05:45:34;99289.78;;;8.17;100.00
46023;BME280;31756;47.936;16.224;2022-10-31T05:48:02;99292.34;;;8.17;100.00
46023;BME280;31756;47.936;16.224;2022-10-31T05:51:06;99283.78;;;7.99;100.00
46023;BME280;31756;47.936;16.224;2022-10-31T05:53:32;99305.06;;;8.11;100.00
46023;BME280;31756;47.936;16.224;2022-10-31T05:55:58;99280.38;;;8.03;100.00
46023;BME280;31756;47.936;16.224;2022-10-31T05:58:24;99296.59;;;8.17;100.00
46023;BME280;31756;47.936;16.224;2022-10-31T06:00:59;99298.28;;;8.19;100.00
46023;BME280;31756;47.936;16.224;2022-10-31T06:03:25;99300.84;;;8.16;100.00
46023;BME280;31756;47.936;16.224;2022-10-31T06:05:54;99299.97;;;8.13;100.00
46023;BME280;31756;47.936;16.224;2022-10-31T06:08:21;99303.41;;;8.13;100.00
46023;BME280;31756;47.936;16.224;2022-10-31T06:10:48;99309.34;;;8.09;100.00
46023;BME280;31756;47.936;16.224;2022-10-31T06:13:18;99289.72;;;8.02;100.00
46023;BME280;31756;47.936;16.224;2022-10-31T06:15:50;99307.63;;;8.11;100.00
46023;BME280;31756;47.936;16.224;2022-10-31T06:18:19;99298.25;;;7.95;100.00
46023;BME280;31756;47.936;16.224;2022-10-31T06:20:48;99309.31;;;8.06;100.00
46023;BME280;31756;47.936;16.224;2022-10-31T06:23:14;99306.78;;;8.03;100.00
46023;BME280;31756;47.936;16.224;2022-10-31T06:25:42;99317.88;;;8.14;100.00
46023;BME280;31756;47.936;16.224;2022-10-31T06:28:10;99322.97;;;8.25;100.00
46023;BME280;31756;47.936;16.224;2022-10-31T06:30:50;99319.56;;;8.24;100.00
46023;BME280;31756;47.936;16.224;2022-10-31T06:33:16;99322.13;;;8.26;100.00
46023;BME280;31756;47.936;16.224;2022-10-31T06:35:52;99322.19;;;8.40;100.00
46023;BME280;31756;47.936;16.224;2022-10-31T06:38:18;99327.31;;;8.40;100.00
46023;BME280;31756;47.936;16.224;2022-10-31T06:40:44;99334.94;;;8.32;100.00
46023;BME280;31756;47.936;16.224;2022-10-31T06:43:25;99329.00;;;8.35;100.00
46023;BME280;31756;47.936;16.224;2022-10-31T06:46:06;99334.06;;;8.28;100.00
46023;BME280;31756;47.936;16.224;2022-10-31T06:48:40;99335.81;;;8.31;100.00
46023;BME280;31756;47.936;16.224;2022-10-31T06:51:19;99340.06;;;8.38;100.00
46023;BME280;31756;47.936;16.224;2022-10-31T06:53:45;99318.78;;;8.32;100.00
46023;BME280;31756;47.936;16.224;2022-10-31T06:56:12;99340.06;;;8.40;100.00
46023;BME280;31756;47.936;16.224;2022-10-31T06:58:45;99322.13;;;8.26;100.00
46023;BME280;31756;47.936;16.224;2022-10-31T07:01:12;99344.34;;;8.44;100.00
46023;BME280;31756;47.936;16.224;2022-10-31T07:03:38;99336.66;;;8.42;100.00
46023;BME280;31756;47.936;16.224;2022-10-31T07:06:05;99346.88;;;8.47;100.00
46023;BME280;31756;47.936;16.224;2022-10-31T07:08:31;99344.34;;;8.48;100.00
46023;BME280;31756;47.936;16.224;2022-10-31T07:10:57;99354.56;;;8.51;100.00
46023;BME280;31756;47.936;16.224;2022-10-31T07:13:24;99354.56;;;8.56;100.00
46023;BME280;31756;47.936;16.224;2022-10-31T07:16:05;99342.63;;;8.67;100.00
46023;BME280;31756;47.936;16.224;2022-10-31T07:18:37;99345.19;;;8.68;100.00
46023;BME280;31756;47.936;16.224;2022-10-31T07:21:03;99347.72;;;8.75;100.00
46023;BME280;31756;47.936;16.224;2022-10-31T07:23:29;99328.16;;;8.77;100.00
46023;BME280;31756;47.936;16.224;2022-10-31T07:26:21;99357.09;;;9.01;100.00
46023;BME280;31756;47.936;16.224;2022-10-31T07:28:47;99354.53;;;9.10;100.00
46023;BME280;31756;47.936;16.224;2022-10-31T07:31:15;99361.34;;;9.05;100.00
46023;BME280;31756;47.936;16.224;2022-10-31T07:33:40;99356.25;;;9.16;100.00
46023;BME280;31756;47.936;16.224;2022-10-31T07:36:38;99357.91;;;9.31;100.00
46023;BME280;31756;47.936;16.224;2022-10-31T07:39:04;99357.06;;;9.33;100.00
46023;BME280;31756;47.936;16.224;2022-10-31T07:41:32;99359.59;;;9.35;100.00
46023;BME280;31756;47.936;16.224;2022-10-31T07:43:58;99362.16;;;9.41;100.00
46023;BME280;31756;47.936;16.224;2022-10-31T07:46:42;99346.81;;;9.30;100.00
46023;BME280;31756;47.936;16.224;2022-10-31T07:49:37;99352.75;;;9.50;100.00
46023;BME280;31756;47.936;16.224;2022-10-31T07:52:08;99357.84;;;9.52;100.00
46023;BME280;31756;47.936;16.224;2022-10-31T07:54:54;99359.53;;;9.62;100.00
46023;BME280;31756;47.936;16.224;2022-10-31T07:57:22;99339.88;;;9.59;100.00
46023;BME280;31756;47.936;16.224;2022-10-31T07:59:48;99348.41;;;9.71;100.00
46023;BME280;31756;47.936;16.224;2022-10-31T08:02:16;99355.19;;;9.76;100.00
46023;BME280;31756;47.936;16.224;2022-10-31T08:04:41;99351.75;;;9.80;100.00
46023;BME280;31756;47.936;16.224;2022-10-31T08:07:19;99314.31;;;9.62;100.00
46023;BME280;31756;47.936;16.224;2022-10-31T08:09:55;99327.84;;;9.83;100.00
46023;BME280;31756;47.936;16.224;2022-10-31T08:12:24;99343.91;;;10.14;100.00
46023;BME280;31756;47.936;16.224;2022-10-31T08:14:52;99344.72;;;10.23;100.00
46023;BME280;31756;47.936;16.224;2022-10-31T08:17:18;99322.53;;;10.27;100.00
46023;BME280;31756;47.936;16.224;2022-10-31T08:19:50;99346.28;;;10.47;100.00
46023;BME280;31756;47.936;16.224;2022-10-31T08:22:18;99350.53;;;10.51;100.00
46023;BME280;31756;47.936;16.224;2022-10-31T08:24:44;99335.19;;;10.45;100.00
46023;BME280;31756;47.936;16.224;2022-10-31T08:27:09;99341.03;;;10.62;100.00
46023;BME280;31756;47.936;16.224;2022-10-31T08:29:37;99344.44;;;10.67;100.00
46023;BME280;31756;47.936;16.224;2022-10-31T08:32:03;99336.75;;;10.64;100.00
46023;BME280;31756;47.936;16.224;2022-10-31T08:34:52;99333.38;;;10.61;100.00
46023;BME280;31756;47.936;16.224;2022-10-31T08:37:36;99341.94;;;10.58;100.00
46023;BME280;31756;47.936;16.224;2022-10-31T08:40:04;99318.97;;;10.40;100.00
46023;BME280;31756;47.936;16.224;2022-10-31T08:42:33;99336.91;;;10.46;100.00
46023;BME280;31756;47.936;16.224;2022-10-31T08:44:59;99318.16;;;10.39;100.00
46023;BME280;31756;47.936;16.224;2022-10-31T08:47:25;99333.31;;;10.68;100.00
46023;BME280;31756;47.936;16.224;2022-10-31T08:49:52;99332.41;;;10.72;100.00
46023;BME280;31756;47.936;16.224;2022-10-31T08:52:22;99326.38;;;10.81;100.00
46023;BME280;31756;47.936;16.224;2022-10-31T08:54:48;99319.47;;;10.86;100.00
46023;BME280;31756;47.936;16.224;2022-10-31T08:57:32;99334.63;;;11.12;100.00
46023;BME280;31756;47.936;16.224;2022-10-31T08:59:58;99332.75;;;11.27;100.00
46023;BME280;31756;47.936;16.224;2022-10-31T09:02:29;99324.78;;;11.52;100.00
46023;BME280;31756;47.936;16.224;2022-10-31T09:04:58;99320.22;;;11.76;100.00
46023;BME280;31756;47.936;16.224;2022-10-31T09:07:24;99307.88;;;12.04;100.00
46023;BME280;31756;47.936;16.224;2022-10-31T09:09:49;99312.97;;;12.06;100.00
46023;BME280;31756;47.936;16.224;2022-10-31T09:12:17;99302.34;;;12.30;100.00
46023;BME280;31756;47.936;16.224;2022-10-31T09:15:15;99320.59;;;12.10;100.00
46023;BME280;31756;47.936;16.224;2022-10-31T09:17:46;99322.31;;;12.13;100.00
46023;BME280;31756;47.936;16.224;2022-10-31T09:20:40;99324.16;;;12.03;100.00
46023;BME280;31756;47.936;16.224;2022-10-31T09:23:16;99315.75;;;11.89;100.00
46023;BME280;31756;47.936;16.224;2022-10-31T09:25:43;99316.72;;;11.80;100.00
46023;BME280;31756;47.936;16.224;2022-10-31T09:28:29;99309.97;;;11.75;100.00
46023;BME280;31756;47.936;16.224;2022-10-31T09:30:59;99303.47;;;11.42;100.00
46023;BME280;31756;47.936;16.224;2022-10-31T09:33:43;99326.59;;;12.11;100.00
46023;BME280;31756;47.936;16.224;2022-10-31T09:36:37;99314.16;;;11.83;100.00
46023;BME280;31756;47.936;16.224;2022-10-31T09:39:05;99321.91;;;11.79;100.00
46023;BME280;31756;47.936;16.224;2022-10-31T09:52:20;99329.91;;;11.53;100.00
46023;BME280;31756;47.936;16.224;2022-10-31T09:54:59;99326.25;;;11.72;100.00
46023;BME280;31756;47.936;16.224;2022-10-31T09:57:34;99319.28;;;11.82;100.00
46023;BME280;31756;47.936;16.224;2022-10-31T10:00:04;99320.84;;;11.95;100.00
46023;BME280;31756;47.936;16.224;2022-10-31T10:05:34;99321.41;;;12.14;100.00
46023;BME280;31756;47.936;16.224;2022-10-31T10:08:11;99321.34;;;12.18;100.00
46023;BME280;31756;47.936;16.224;2022-10-31T10:24:33;99312.69;;;12.25;100.00
46023;BME280;31756;47.936;16.224;2022-10-31T10:27:05;99314.97;;;11.85;100.00
46023;BME280;31756;47.936;16.224;2022-10-31T10:29:50;99316.56;;;11.93;100.00
46023;BME280;31756;47.936;16.224;2022-10-31T10:32:24;99306.22;;;11.97;100.00
46023;BME280;31756;47.936;16.224;2022-10-31T10:35:11;99312.81;;;12.16;100.00
46023;BME280;31756;47.936;16.224;2022-10-31T10:37:41;99297.53;;;12.06;100.00
46023;BME280;31756;47.936;16.224;2022-10-31T10:40:16;99312.66;;;12.27;100.00
46023;BME280;31756;47.936;16.224;2022-10-31T10:42:45;99300.63;;;12.29;100.00
46023;BME280;31756;47.936;16.224;2022-10-31T10:45:37;99291.16;;;12.32;100.00
46023;BME280;31756;47.936;16.224;2022-10-31T10:48:34;99295.38;;;12.35;100.00
46023;BME280;31756;47.936;16.224;2022-10-31T10:51:10;99298.59;;;12.49;100.00
46023;BME280;31756;47.936;16.224;2022-10-31T10:56:55;99301.16;;;12.51;100.00
46023;BME280;31756;47.936;16.224;2022-10-31T10:59:24;99291.81;;;12.45;100.00
46023;BME280;31756;47.936;16.224;2022-10-31T11:01:50;99310.44;;;12.59;100.00
46023;BME280;31756;47.936;16.224;2022-10-31T11:04:38;99304.50;;;12.56;100.00
46023;BME280;31756;47.936;16.224;2022-10-31T11:07:07;99296.78;;;12.56;100.00
46023;BME280;31756;47.936;16.224;2022-10-31T11:09:34;99285.03;;;12.40;100.00
46023;BME280;31756;47.936;16.224;2022-10-31T11:12:08;99294.28;;;12.51;100.00
46023;BME280;31756;47.936;16.224;2022-10-31T11:14:43;99295.09;;;12.53;100.00
46023;BME280;31756;47.936;16.224;2022-10-31T11:17:17;99293.31;;;12.58;100.00
46023;BME280;31756;47.936;16.224;2022-10-31T11:19:44;99291.47;;;12.13;100.00
46023;BME280;31756;47.936;16.224;2022-10-31T11:22:17;99293.84;;;12.25;100.00
46023;BME280;31756;47.936;16.224;2022-10-31T11:24:43;99295.56;;;12.26;100.00
46023;BME280;31756;47.936;16.224;2022-10-31T11:27:29;99289.38;;;12.36;100.00
46023;BME280;31756;47.936;16.224;2022-10-31T11:30:06;99286.78;;;12.38;100.00
46023;BME280;31756;47.936;16.224;2022-10-31T11:32:32;99288.44;;;12.43;100.00
46023;BME280;31756;47.936;16.224;2022-10-31T11:35:00;99281.38;;;12.54;100.00
46023;BME280;31756;47.936;16.224;2022-10-31T11:37:29;99281.25;;;12.60;100.00
46023;BME280;31756;47.936;16.224;2022-10-31T11:39:58;99279.50;;;12.64;100.00
46023;BME280;31756;47.936;16.224;2022-10-31T11:42:29;99258.22;;;12.54;100.00
46023;BME280;31756;47.936;16.224;2022-10-31T11:45:02;99274.38;;;12.61;100.00
46023;BME280;31756;47.936;16.224;2022-10-31T11:47:31;99251.38;;;12.53;100.00
46023;BME280;31756;47.936;16.224;2022-10-31T11:50:19;99254.75;;;12.57;100.00
46023;BME280;31756;47.936;16.224;2022-10-31T11:52:46;99265.75;;;12.65;100.00
46023;BME280;31756;47.936;16.224;2022-10-31T11:57:47;99265.81;;;12.60;100.00
46023;BME280;31756;47.936;16.224;2022-10-31T12:00:31;99268.94;;;12.28;100.00
46023;BME280;31756;47.936;16.224;2022-10-31T12:03:11;99246.97;;;12.09;100.00
46023;BME280;31756;47.936;16.224;2022-10-31T12:05:39;99268.13;;;12.25;100.00
46023;BME280;31756;47.936;16.224;2022-10-31T12:08:11;99257.78;;;12.29;100.00
46023;BME280;31756;47.936;16.224;2022-10-31T12:11:10;99258.53;;;12.36;100.00
46023;BME280;31756;47.936;16.224;2022-10-31T12:18:59;99250.66;;;12.45;100.00
46023;BME280;31756;47.936;16.224;2022-10-31T12:21:54;99245.59;;;12.39;100.00
46023;BME280;31756;47.936;16.224;2022-10-31T12:30:06;99247.06;;;12.55;100.00
46023;BME280;31756;47.936;16.224;2022-10-31T12:33:15;99246.16;;;12.56;100.00
46023;BME280;31756;47.936;16.224;2022-10-31T12:39:17;99231.16;;;12.32;100.00
46023;BME280;31756;47.936;16.224;2022-10-31T13:01:25;99242.31;;;12.31;100.00
46023;BME280;31756;47.936;16.224;2022-10-31T13:06:38;99241.66;;;12.20;100.00
46023;BME280;31756;47.936;16.224;2022-10-31T13:09:08;99235.56;;;12.25;100.00
46023;BME280;31756;47.936;16.224;2022-10-31T13:11:45;99215.22;;;12.12;100.00
46023;BME280;31756;47.936;16.224;2022-10-31T13:14:26;99238.03;;;12.31;100.00
46023;BME280;31756;47.936;16.224;2022-10-31T13:16:56;99227.00;;;12.25;100.00
46023;BME280;31756;47.936;16.224;2022-10-31T13:19:25;99235.53;;;12.27;100.00
46023;BME280;31756;47.936;16.224;2022-10-31T13:24:36;99225.28;;;12.24;100.00
46023;BME280;31756;47.936;16.224;2022-10-31T13:27:13;99232.09;;;12.26;100.00
46023;BME280;31756;47.936;16.224;2022-10-31T13:29:48;99219.41;;;12.17;100.00
46023;BME280;31756;47.936;16.224;2022-10-31T13:32:16;99227.06;;;12.22;100.00
46023;BME280;31756;47.936;16.224;2022-10-31T13:34:46;99231.34;;;12.21;100.00
46023;BME280;31756;47.936;16.224;2022-10-31T13:37:41;99232.22;;;12.19;100.00
46023;BME280;31756;47.936;16.224;2022-10-31T13:40:15;99229.66;;;12.19;100.00
46023;BME280;31756;47.936;16.224;2022-10-31T13:42:57;99210.94;;;12.11;100.00
46023;BME280;31756;47.936;16.224;2022-10-31T13:45:26;99222.78;;;12.21;100.00
46023;BME280;31756;47.936;16.224;2022-10-31T13:50:41;99210.00;;;12.16;100.00
46023;BME280;31756;47.936;16.224;2022-10-31T13:53:13;99206.66;;;12.10;100.00
46023;BME280;31756;47.936;16.224;2022-10-31T13:55:44;99206.66;;;12.10;100.00
46023;BME280;31756;47.936;16.224;2022-10-31T13:58:23;99206.78;;;12.02;100.00
46023;BME280;31756;47.936;16.224;2022-10-31T14:03:25;99222.00;;;12.17;100.00
46023;BME280;31756;47.936;16.224;2022-10-31T14:05:54;99217.50;;;12.30;100.00
46023;BME280;31756;47.936;16.224;2022-10-31T14:08:23;99213.50;;;12.12;100.00
46023;BME280;31756;47.936;16.224;2022-10-31T14:10:51;99198.28;;;11.99;100.00
46023;BME280;31756;47.936;16.224;2022-10-31T14:13:22;99196.63;;;11.96;100.00
46023;BME280;31756;47.936;16.224;2022-10-31T14:16:01;99197.22;;;12.12;100.00
46023;BME280;31756;47.936;16.224;2022-10-31T14:18:37;99188.56;;;12.17;100.00
46023;BME280;31756;47.936;16.224;2022-10-31T14:21:37;99201.22;;;12.29;100.00
46023;BME280;31756;47.936;16.224;2022-10-31T14:26:39;99192.22;;;12.55;100.00
46023;BME280;31756;47.936;16.224;2022-10-31T14:31:43;99173.00;;;12.25;100.00
46023;BME280;31756;47.936;16.224;2022-10-31T14:39:36;99188.66;;;12.13;100.00
46023;BME280;31756;47.936;16.224;2022-10-31T14:42:16;99188.03;;;11.97;100.00
46023;BME280;31756;47.936;16.224;2022-10-31T14:52:36;99188.19;;;11.86;100.00
46023;BME280;31756;47.936;16.224;2022-10-31T14:55:05;99164.53;;;11.63;100.00
46023;BME280;31756;47.936;16.224;2022-10-31T14:57:34;99182.41;;;11.74;100.00
46023;BME280;31756;47.936;16.224;2022-10-31T15:00:05;99178.94;;;11.76;100.00
46023;BME280;31756;47.936;16.224;2022-10-31T15:02:48;99174.88;;;11.59;100.00
46023;BME280;31756;47.936;16.224;2022-10-31T15:05:15;99179.38;;;11.41;100.00
46023;BME280;31756;47.936;16.224;2022-10-31T15:07:52;99167.50;;;11.36;100.00
46023;BME280;31756;47.936;16.224;2022-10-31T15:10:37;99164.94;;;11.36;100.00
46023;BME280;31756;47.936;16.224;2022-10-31T15:13:20;99181.06;;;11.45;100.00